createdAt,value
2023-05-25T00:07:09.764Z,15.44
2023-05-25T00:17:37.398Z,15.28
2023-05-25T00:28:04.976Z,15.11
2023-05-25T00:38:29.394Z,14.99
2023-05-25T00:48:57.498Z,14.84
2023-05-25T00:59:31.137Z,14.81
2023-05-25T01:10:02.799Z,14.95
2023-05-25T01:20:30.168Z,14.83
2023-05-25T01:30:57.806Z,14.81
2023-05-25T01:41:23.326Z,14.90
2023-05-25T01:51:57.707Z,15.15
2023-05-25T02:02:24.573Z,15.34
2023-05-25T02:12:50.869Z,15.46
2023-05-25T02:23:18.721Z,15.23
2023-05-25T02:33:44.490Z,15.00
2023-05-25T02:44:10.219Z,14.88
2023-05-25T02:54:36.439Z,14.69
2023-05-25T03:05:04.656Z,14.39
2023-05-25T03:15:30.700Z,14.29
2023-05-25T03:25:56.079Z,14.24
2023-05-25T03:36:22.402Z,14.20
2023-05-25T03:46:48.062Z,14.34
2023-05-25T03:57:14.305Z,14.36
2023-05-25T04:07:41.321Z,14.29
2023-05-25T04:18:07.923Z,14.19
2023-05-25T04:28:33.545Z,14.30
2023-05-25T04:39:03.048Z,14.37
2023-05-25T04:49:28.848Z,14.30
2023-05-25T04:59:54.902Z,14.32
2023-05-25T05:10:20.724Z,14.45
2023-05-25T05:20:46.807Z,14.40
2023-05-25T05:31:13.247Z,14.39
2023-05-25T05:41:39.071Z,14.25
2023-05-25T05:52:06.891Z,14.21
2023-05-25T06:02:32.707Z,14.13
2023-05-25T06:12:58.688Z,14.20
2023-05-25T06:23:24.971Z,14.27
2023-05-25T06:33:51.979Z,14.27
2023-05-25T06:44:18.895Z,14.20
2023-05-25T06:54:44.779Z,14.15
2023-05-25T07:05:11.344Z,14.22
2023-05-25T07:15:37.190Z,14.20
2023-05-25T07:26:05.576Z,14.13
2023-05-25T07:36:31.708Z,14.11
2023-05-25T07:46:57.283Z,14.21
2023-05-25T07:57:23.374Z,14.20
2023-05-25T08:07:49.225Z,14.20
2023-05-25T08:18:15.185Z,14.17
2023-05-25T08:28:41.422Z,14.19
2023-05-25T08:39:08.419Z,14.22
2023-05-25T08:49:39.469Z,14.27
2023-05-25T09:00:10.934Z,14.25
2023-05-25T09:10:37.910Z,14.28
2023-05-25T09:21:04.328Z,14.30
2023-05-25T09:31:31.336Z,14.24
2023-05-25T09:41:57.701Z,14.18
2023-05-25T09:52:24.178Z,14.26
2023-05-25T10:02:50.250Z,14.31
2023-05-25T10:13:20.034Z,14.40
2023-05-25T10:23:49.286Z,14.46
2023-05-25T10:34:17.453Z,14.63
2023-05-25T10:44:44.113Z,14.76
2023-05-25T10:55:12.728Z,14.79
2023-05-25T11:05:40.931Z,14.90
2023-05-25T11:16:17.975Z,15.06
2023-05-25T11:26:57.845Z,15.19
2023-05-25T11:37:25.656Z,15.28
2023-05-25T11:47:51.493Z,15.42
2023-05-25T11:58:17.771Z,15.47
2023-05-25T12:08:43.372Z,15.50
2023-05-25T12:19:11.361Z,15.51
2023-05-25T12:30:14.792Z,15.53
2023-05-25T12:40:40.807Z,15.63
2023-05-25T12:51:07.220Z,15.73
2023-05-25T13:01:34.252Z,15.83
2023-05-25T13:12:02.645Z,15.82
2023-05-25T13:22:28.646Z,15.92
2023-05-25T13:32:55.504Z,15.92
2023-05-25T13:43:21.292Z,15.86
2023-05-25T13:53:48.678Z,15.91
2023-05-25T14:04:16.581Z,15.93
2023-05-25T14:14:42.239Z,15.89
2023-05-25T14:25:10.200Z,15.90
2023-05-25T14:35:35.935Z,15.96
2023-05-25T14:46:01.982Z,16.03
2023-05-25T14:56:28.263Z,16.07
2023-05-25T15:06:54.110Z,16.15
2023-05-25T15:17:19.651Z,16.19
2023-05-25T15:27:45.214Z,16.30
2023-05-25T15:38:10.970Z,16.31
2023-05-25T15:48:36.610Z,16.23
2023-05-25T15:59:02.404Z,16.24
2023-05-25T16:09:28.144Z,16.22
2023-05-25T16:19:53.929Z,16.33
2023-05-25T16:30:20.223Z,16.37
2023-05-25T16:40:46.392Z,16.38
2023-05-25T16:51:15.316Z,16.42
2023-05-25T17:01:41.226Z,16.49
2023-05-25T17:12:07.675Z,16.60
2023-05-25T17:22:34.244Z,16.61
2023-05-25T17:33:01.914Z,16.66
2023-05-25T17:43:25.850Z,16.70
2023-05-25T17:53:51.294Z,16.64
2023-05-25T18:04:17.227Z,16.59
2023-05-25T18:14:43.071Z,16.32
2023-05-25T18:25:10.595Z,16.24
2023-05-25T18:35:37.032Z,16.16
2023-05-25T18:46:03.009Z,16.10
2023-05-25T18:56:28.773Z,16.15
2023-05-25T19:06:54.613Z,16.04
2023-05-25T19:17:21.401Z,15.87
2023-05-25T19:27:47.140Z,15.87
2023-05-25T19:38:14.434Z,15.96
2023-05-25T19:48:41.724Z,16.09
2023-05-25T19:59:07.464Z,16.11
2023-05-25T20:09:35.171Z,16.12
2023-05-25T20:20:01.756Z,16.12
2023-05-25T20:30:28.041Z,16.09
2023-05-25T20:40:53.933Z,15.89
2023-05-25T20:51:19.945Z,15.72
2023-05-25T21:01:45.727Z,15.57
2023-05-25T21:12:11.758Z,15.54
2023-05-25T21:22:37.880Z,15.39
2023-05-25T21:33:03.904Z,15.11
2023-05-25T21:43:31.044Z,15.01
2023-05-25T21:53:56.429Z,15.04
2023-05-25T22:04:22.196Z,15.07
2023-05-25T22:14:49.289Z,15.15
2023-05-25T22:25:16.029Z,15.05
2023-05-25T22:35:42.267Z,14.82
2023-05-25T22:46:08.981Z,14.73
2023-05-25T22:56:36.278Z,14.60
2023-05-25T23:07:02.051Z,14.49
2023-05-25T23:17:27.674Z,14.48
2023-05-25T23:27:53.581Z,14.39
2023-05-25T23:38:19.557Z,14.43
2023-05-25T23:48:45.523Z,14.47
2023-05-25T23:59:14.456Z,14.50
